Time;durP1;ratioP1;P1;durP2;ratioP2;P2;SDS_P1;SDS_P2;PMS_P1;PMS_P2;Temp;Humidity;BMP_temperature;BMP_pressure;BME280_temperature;BME280_humidity;BME280_pressure;Samples;Min_cycle;Max_cycle;Signal;HPM_P1;HPM_P2
2022/09/17 00:00:43;;;;;;;3.22;1.75;;;;;;;25.68;46.17;99648.56;1718882;82;20999;-74
2022/09/17 00:03:10;;;;;;;4.95;2.00;;;;;;;25.69;46.16;99648.78;1703422;82;21534;-73
2022/09/17 00:05:36;;;;;;;3.92;1.98;;;;;;;25.68;46.18;99654.14;1710445;82;21015;-74
2022/09/17 00:08:07;;;;;;;3.40;1.55;;;;;;;25.68;46.18;99652.75;1710526;82;21042;-73
2022/09/17 00:10:40;;;;;;;2.80;1.80;;;;;;;25.69;46.16;99654.36;1710408;82;21070;-73
2022/09/17 00:13:07;;;;;;;2.90;1.40;;;;;;;25.68;46.18;99656.92;1710437;82;21075;-74
2022/09/17 00:15:41;;;;;;;3.05;1.62;;;;;;;25.68;46.18;99652.75;1710578;82;20935;-73
2022/09/17 00:18:07;;;;;;;3.58;1.80;;;;;;;25.68;46.17;99656.13;1710733;82;21509;-74
2022/09/17 00:20:40;;;;;;;2.52;1.47;;;;;;;25.69;46.17;99652.16;1690676;83;21021;-73
2022/09/17 00:23:07;;;;;;;3.22;1.75;;;;;;;25.68;46.20;99660.30;1710249;83;21465;-73
2022/09/17 00:25:33;;;;;;;3.45;1.82;;;;;;;25.68;46.21;99660.30;1710392;82;21121;-73
2022/09/17 00:28:00;;;;;;;3.00;1.62;;;;;;;25.68;46.20;99649.96;1710108;83;21095;-74
2022/09/17 00:30:27;;;;;;;3.08;1.82;;;;;;;25.68;46.21;99651.94;1710396;82;21114;-73
2022/09/17 00:32:56;;;;;;;2.75;1.57;;;;;;;25.68;46.21;99667.27;1710684;82;21031;-73
2022/09/17 00:35:22;;;;;;;4.40;1.77;;;;;;;25.68;46.24;99657.52;1703138;83;21012;-73
2022/09/17 00:37:48;;;;;;;3.55;1.65;;;;;;;25.68;46.22;99649.16;1710759;82;21301;-73
2022/09/17 00:40:14;;;;;;;4.58;1.75;;;;;;;25.69;46.22;99647.98;1710691;83;21206;-73
2022/09/17 00:42:41;;;;;;;3.92;1.90;;;;;;;25.68;46.23;99649.16;1705681;82;21034;-73
2022/09/17 00:45:09;;;;;;;4.05;1.92;;;;;;;25.68;46.24;99650.55;1686044;84;21504;-73
2022/09/17 00:47:45;;;;;;;5.05;1.72;;;;;;;25.67;46.24;99642.81;1680567;83;21567;-73
2022/09/17 00:50:36;;;;;;;3.02;1.60;;;;;;;25.67;46.24;99634.45;1680619;83;21053;-73
2022/09/17 00:53:15;;;;;;;2.52;1.42;;;;;;;25.68;46.24;99640.80;1680609;83;21042;-75
2022/09/17 00:56:04;;;;;;;4.72;1.95;;;;;;;25.66;46.24;99638.41;1680369;84;21471;-73
2022/09/17 00:58:30;;;;;;;2.42;1.47;;;;;;;25.66;46.24;99637.61;1680609;83;21589;-74
2022/09/17 01:00:57;;;;;;;2.30;1.52;;;;;;;25.66;46.24;99633.43;1680248;83;21096;-73
2022/09/17 01:03:23;;;;;;;4.30;1.90;;;;;;;25.66;46.28;99637.02;1680581;84;21053;-74
2022/09/17 01:06:10;;;;;;;7.22;1.70;;;;;;;25.66;46.30;99637.61;1680722;83;21788;-73
2022/09/17 01:09:12;;;;;;;3.87;1.80;;;;;;;25.65;46.29;99628.45;1680345;83;21116;-73
2022/09/17 01:12:05;;;;;;;2.45;1.60;;;;;;;25.65;46.29;99621.48;1680195;83;21084;-73
2022/09/17 01:14:52;;;;;;;4.08;2.10;;;;;;;25.65;46.28;99626.25;1680355;84;21637;-74
2022/09/17 01:17:56;;;;;;;3.50;1.62;;;;;;;25.65;46.29;99628.45;1680390;84;21006;-74
2022/09/17 01:20:46;;;;;;;2.83;1.67;;;;;;;25.64;46.29;99623.24;1693319;83;21112;-73
2022/09/17 01:23:33;;;;;;;2.85;1.50;;;;;;;25.63;46.29;99624.45;1710010;82;21061;-74
2022/09/17 01:26:34;;;;;;;10.15;1.95;;;;;;;25.62;46.31;99640.94;1710428;83;21062;-73
2022/09/17 01:29:21;;;;;;;4.15;2.02;;;;;;;25.62;46.31;99647.31;1710506;82;21611;-73
2022/09/17 01:32:14;;;;;;;4.92;1.80;;;;;;;25.62;46.32;99649.30;1710372;82;21491;-75
2022/09/17 01:35:06;;;;;;;4.03;1.85;;;;;;;25.61;46.35;99645.70;1709921;82;22046;-74
2022/09/17 01:37:53;;;;;;;2.30;1.47;;;;;;;25.60;46.34;99637.13;1710044;82;21050;-73
2022/09/17 01:40:31;;;;;;;5.28;1.82;;;;;;;25.61;46.35;99649.08;1710711;82;21641;-74
2022/09/17 01:43:02;;;;;;;2.72;1.55;;;;;;;25.60;46.35;99644.09;1709523;82;21473;-74
2022/09/17 01:45:40;;;;;;;2.70;1.65;;;;;;;25.60;46.38;99646.88;1710967;82;21039;-74
2022/09/17 01:48:24;;;;;;;2.30;1.55;;;;;;;25.59;46.41;99643.87;1692319;83;21966;-75
2022/09/17 01:51:08;;;;;;;3.60;1.65;;;;;;;25.60;46.42;99644.09;1710710;82;21046;-74
2022/09/17 01:53:51;;;;;;;3.47;1.60;;;;;;;25.60;46.45;99639.11;1692228;83;21169;-74
2022/09/17 01:56:24;;;;;;;3.92;1.72;;;;;;;25.60;46.44;99642.70;1699390;82;21058;-73
2022/09/17 01:58:59;;;;;;;3.00;1.50;;;;;;;25.60;46.45;99645.48;1710573;82;21066;-74
2022/09/17 02:01:29;;;;;;;3.50;1.57;;;;;;;25.60;46.45;99636.33;1702585;83;21974;-73
2022/09/17 02:04:02;;;;;;;2.92;1.37;;;;;;;25.59;46.46;99625.77;1696459;83;21452;-73
2022/09/17 02:06:31;;;;;;;2.58;1.60;;;;;;;25.61;46.47;99619.83;1696752;83;21798;-75
2022/09/17 02:09:08;;;;;;;2.25;1.50;;;;;;;25.61;46.46;99629.58;1696680;83;21069;-73
2022/09/17 02:11:35;;;;;;;3.10;1.55;;;;;;;25.60;46.47;99632.95;1696932;82;21072;-74
2022/09/17 02:14:16;;;;;;;3.22;1.47;;;;;;;25.61;46.46;99627.60;1696692;84;21177;-73
2022/09/17 02:16:50;;;;;;;4.03;1.70;;;;;;;25.60;46.47;99627.38;1696888;84;21494;-73
2022/09/17 02:19:26;;;;;;;3.45;1.75;;;;;;;25.61;46.45;99631.78;1695961;83;21061;-73
2022/09/17 02:22:31;;;;;;;1.95;1.35;;;;;;;25.61;46.47;99619.25;1696979;83;21092;-73
2022/09/17 02:25:15;;;;;;;3.17;1.60;;;;;;;25.61;46.48;99611.48;1696751;83;21568;-73
2022/09/17 02:28:07;;;;;;;3.02;1.70;;;;;;;25.60;46.46;99610.67;1697024;84;21142;-73
2022/09/17 02:30:34;;;;;;;3.60;1.70;;;;;;;25.59;46.44;99613.23;1696850;84;21447;-74
2022/09/17 02:33:01;;;;;;;3.08;1.60;;;;;;;25.60;46.46;99608.47;1664863;85;21025;-74
2022/09/17 02:35:30;;;;;;;5.30;2.05;;;;;;;25.60;46.48;99596.75;1667251;84;21108;-74
2022/09/17 02:37:56;;;;;;;3.08;1.57;;;;;;;25.59;46.49;99600.70;1667044;84;21076;-74
2022/09/17 02:40:23;;;;;;;3.83;1.50;;;;;;;25.60;46.52;99614.84;1645914;86;21477;-74
2022/09/17 02:43:04;;;;;;;3.02;1.60;;;;;;;25.60;46.52;99619.03;1646208;86;21053;-75
2022/09/17 02:45:54;;;;;;;2.83;1.62;;;;;;;25.60;46.54;99607.08;1666184;84;21701;-75
2022/09/17 02:48:32;;;;;;;2.60;1.60;;;;;;;25.60;46.52;99603.70;1666940;84;21002;-73
2022/09/17 02:51:19;;;;;;;3.45;1.57;;;;;;;25.60;46.51;99596.75;1666686;84;21195;-74
2022/09/17 02:53:54;;;;;;;3.35;1.40;;;;;;;25.60;46.51;99599.53;1666988;84;21166;-74
2022/09/17 02:56:47;;;;;;;2.37;1.45;;;;;;;25.60;46.51;99600.12;1667173;84;21096;-74
2022/09/17 02:59:44;;;;;;;2.40;1.32;;;;;;;25.59;46.53;99599.31;1678317;83;21010;-74
2022/09/17 03:02:21;;;;;;;2.92;1.50;;;;;;;25.59;46.52;99593.74;1676566;83;20989;-74
2022/09/17 03:04:49;;;;;;;4.05;1.52;;;;;;;25.59;46.52;99588.79;1680409;83;21024;-74
2022/09/17 03:07:17;;;;;;;3.12;1.50;;;;;;;25.59;46.51;99585.39;1632778;85;22117;-74
2022/09/17 03:09:43;;;;;;;3.65;1.45;;;;;;;25.58;46.53;99572.66;1704472;83;21003;-74
2022/09/17 03:12:10;;;;;;;2.80;1.37;;;;;;;25.58;46.54;99564.31;1710639;82;21011;-74
2022/09/17 03:14:36;;;;;;;3.15;1.65;;;;;;;25.58;46.54;99555.95;1710259;82;21137;-74
2022/09/17 03:17:03;;;;;;;2.83;1.60;;;;;;;25.59;46.55;99558.92;1691125;82;21767;-74
2022/09/17 03:19:29;;;;;;;2.37;1.40;;;;;;;25.59;46.55;99560.31;1710634;82;21577;-74
2022/09/17 03:21:55;;;;;;;2.90;1.35;;;;;;;25.59;46.57;99560.31;1710303;82;21084;-74
2022/09/17 03:24:22;;;;;;;2.37;1.27;;;;;;;25.60;46.57;99566.11;1710535;82;21027;-75
2022/09/17 03:26:48;;;;;;;3.20;1.70;;;;;;;25.60;46.57;99566.11;1710294;83;21054;-74
2022/09/17 03:29:15;;;;;;;1.98;1.20;;;;;;;25.61;46.55;99552.98;1710403;82;21026;-74
2022/09/17 03:31:41;;;;;;;2.75;1.60;;;;;;;25.60;46.57;99545.22;1710647;82;21276;-74
2022/09/17 03:34:07;;;;;;;3.00;1.25;;;;;;;25.60;46.54;99545.22;1710415;83;21576;-74
2022/09/17 03:36:34;;;;;;;2.45;1.60;;;;;;;25.61;46.58;99547.41;1710418;82;21097;-74
2022/09/17 03:39:00;;;;;;;4.15;1.60;;;;;;;25.60;46.57;99548.00;1710551;82;21145;-74
2022/09/17 03:41:26;;;;;;;3.67;1.57;;;;;;;25.61;46.55;99539.06;1710503;82;21533;-75
2022/09/17 03:43:53;;;;;;;2.95;1.35;;;;;;;25.60;46.57;99543.83;1710349;83;21901;-75
2022/09/17 03:46:19;;;;;;;2.10;1.35;;;;;;;25.61;46.58;99535.69;1710557;82;21001;-74
2022/09/17 03:48:45;;;;;;;2.85;1.50;;;;;;;25.60;46.58;99536.86;1708803;82;21616;-74
2022/09/17 03:51:18;;;;;;;2.95;1.50;;;;;;;25.60;46.60;99528.50;1710333;82;21057;-74
2022/09/17 03:53:44;;;;;;;3.27;1.60;;;;;;;25.61;46.59;99520.95;1710470;82;21050;-74
2022/09/17 03:56:10;;;;;;;3.58;1.40;;;;;;;25.61;46.59;99519.56;1710520;82;21125;-75
2022/09/17 03:58:37;;;;;;;2.92;1.40;;;;;;;25.60;46.57;99511.80;1710009;82;20954;-74
2022/09/17 04:01:04;;;;;;;3.10;1.60;;;;;;;25.60;46.59;99514.58;1710378;82;21043;-75
2022/09/17 04:03:30;;;;;;;2.83;1.52;;;;;;;25.60;46.60;99517.36;1710383;82;21072;-74
2022/09/17 04:05:56;;;;;;;2.80;1.42;;;;;;;25.61;46.60;99518.17;1710575;83;21702;-74
2022/09/17 04:08:23;;;;;;;1.65;1.30;;;;;;;25.60;46.58;99510.41;1710778;82;21866;-75
2022/09/17 04:10:50;;;;;;;3.47;1.67;;;;;;;25.60;46.58;99513.19;1710274;82;21042;-74
2022/09/17 04:13:17;;;;;;;1.55;1.20;;;;;;;25.61;46.60;99508.42;1710538;82;21010;-74
2022/09/17 04:15:44;;;;;;;2.30;1.35;;;;;;;25.60;46.60;99512.38;1710745;82;20975;-74
2022/09/17 04:18:11;;;;;;;3.83;1.40;;;;;;;25.61;46.61;99503.66;1710558;82;21027;-74
2022/09/17 04:20:38;;;;;;;2.17;1.20;;;;;;;25.60;46.61;99508.20;1710466;82;21181;-75
2022/09/17 04:23:06;;;;;;;2.90;1.37;;;;;;;25.59;46.60;99506.01;1710638;82;21596;-74
2022/09/17 04:25:33;;;;;;;3.47;1.40;;;;;;;25.59;46.59;99511.58;1710690;82;21054;-74
2022/09/17 04:27:59;;;;;;;2.62;1.30;;;;;;;25.60;46.61;99506.81;1710429;82;21070;-74
2022/09/17 04:30:25;;;;;;;2.10;1.40;;;;;;;25.60;46.61;99499.26;1710529;83;21070;-74
2022/09/17 04:32:52;;;;;;;3.30;1.20;;;;;;;25.60;46.60;99491.49;1710731;83;21560;-74
2022/09/17 04:35:18;;;;;;;3.15;1.40;;;;;;;25.60;46.57;99491.49;1710344;82;21544;-75
2022/09/17 04:37:53;;;;;;;4.00;1.40;;;;;;;25.61;46.58;99497.28;1710533;83;21525;-74
2022/09/17 04:40:20;;;;;;;2.70;1.40;;;;;;;25.60;46.60;99490.91;1710340;82;21082;-73
2022/09/17 04:42:46;;;;;;;2.37;1.30;;;;;;;25.60;46.60;99508.20;1710282;82;21655;-74
2022/09/17 04:45:13;;;;;;;2.75;1.47;;;;;;;25.60;46.58;99508.20;1710364;82;21946;-74
2022/09/17 04:47:39;;;;;;;2.95;1.40;;;;;;;25.59;46.59;99500.44;1710502;83;21568;-74
2022/09/17 04:50:06;;;;;;;3.42;1.50;;;;;;;25.59;46.60;99494.86;1710408;83;21101;-74
2022/09/17 04:52:32;;;;;;;2.22;1.32;;;;;;;25.60;46.58;99497.87;1710661;83;21533;-74
2022/09/17 04:54:59;;;;;;;1.90;1.30;;;;;;;25.61;46.60;99494.49;1710906;82;21068;-74
2022/09/17 04:57:30;;;;;;;3.37;1.70;;;;;;;25.60;46.59;99488.70;1710275;82;21067;-74
2022/09/17 04:59:57;;;;;;;4.60;1.37;;;;;;;25.60;46.58;99498.45;1710331;82;21047;-74
2022/09/17 05:02:23;;;;;;;4.40;1.37;;;;;;;25.59;46.58;99500.44;1710191;83;21082;-74
2022/09/17 05:04:49;;;;;;;2.75;1.40;;;;;;;25.59;46.60;99500.44;1709974;82;21054;-74
2022/09/17 05:07:16;;;;;;;2.08;1.37;;;;;;;25.60;46.58;99495.67;1710379;82;21081;-74
2022/09/17 05:09:42;;;;;;;3.35;1.60;;;;;;;25.59;46.58;99495.48;1710492;82;21126;-74
2022/09/17 05:12:08;;;;;;;2.83;1.60;;;;;;;25.60;46.60;99493.69;1710218;83;21765;-75
2022/09/17 05:14:35;;;;;;;3.20;1.22;;;;;;;25.60;46.59;99490.09;1710392;82;21010;-74
2022/09/17 05:17:01;;;;;;;3.52;1.67;;;;;;;25.60;46.60;99483.14;1710537;83;21522;-75
2022/09/17 05:19:27;;;;;;;2.30;1.27;;;;;;;25.59;46.60;99480.94;1710460;83;21109;-74
2022/09/17 05:21:53;;;;;;;3.75;1.40;;;;;;;25.59;46.58;99476.77;1710480;83;21859;-74
2022/09/17 05:24:20;;;;;;;2.75;1.47;;;;;;;25.60;46.59;99490.91;1710560;82;21043;-74
2022/09/17 05:26:46;;;;;;;2.05;1.47;;;;;;;25.60;46.61;99490.91;1710311;82;21446;-74
2022/09/17 05:29:12;;;;;;;6.60;1.50;;;;;;;25.60;46.60;99497.87;1690803;83;21062;-73
2022/09/17 05:31:39;;;;;;;3.00;1.30;;;;;;;25.59;46.58;99497.66;1692055;83;21109;-74
2022/09/17 05:34:05;;;;;;;2.00;1.30;;;;;;;25.60;46.61;99499.26;1710413;82;21482;-74
2022/09/17 05:36:31;;;;;;;2.62;1.50;;;;;;;25.60;46.60;99492.30;1716160;82;21027;-74
2022/09/17 05:38:57;;;;;;;1.92;1.17;;;;;;;25.61;46.59;99489.73;1710702;82;21059;-74
2022/09/17 05:41:30;;;;;;;3.25;1.40;;;;;;;25.61;46.60;99498.67;1710203;82;21030;-74
2022/09/17 05:43:56;;;;;;;2.72;1.37;;;;;;;25.60;46.59;99502.05;1691897;83;21030;-74
2022/09/17 05:46:23;;;;;;;3.22;1.37;;;;;;;25.60;46.60;99497.06;1710269;82;21540;-74
2022/09/17 05:48:49;;;;;;;3.10;1.60;;;;;;;25.60;46.60;99495.67;1710186;82;21534;-75
2022/09/17 05:51:15;;;;;;;3.95;1.42;;;;;;;25.60;46.58;99490.91;1710668;82;21003;-74
2022/09/17 05:53:47;;;;;;;2.65;1.40;;;;;;;25.62;46.58;99497.50;1710246;82;20996;-74
2022/09/17 05:56:14;;;;;;;3.17;1.30;;;;;;;25.61;46.58;99498.67;1710468;83;21355;-74
2022/09/17 05:58:40;;;;;;;3.35;1.40;;;;;;;25.61;46.60;99505.64;1710616;82;21250;-74
2022/09/17 06:01:07;;;;;;;2.50;1.50;;;;;;;25.60;46.58;99510.41;1710314;83;21038;-74
2022/09/17 06:03:33;;;;;;;2.60;1.32;;;;;;;25.61;46.60;99505.05;1708927;82;21063;-74
2022/09/17 06:05:59;;;;;;;3.33;1.55;;;;;;;25.62;46.59;99497.50;1696836;84;21040;-74
2022/09/17 06:08:27;;;;;;;2.00;1.37;;;;;;;25.61;46.58;99489.73;1696711;83;21073;-74
2022/09/17 06:10:54;;;;;;;2.70;1.42;;;;;;;25.61;46.60;99495.89;1673305;84;21481;-74
2022/09/17 06:13:20;;;;;;;4.42;1.57;;;;;;;25.61;46.60;99504.24;1647602;86;20993;-74
2022/09/17 06:15:51;;;;;;;5.12;1.72;;;;;;;25.61;46.60;99502.85;1668600;84;20942;-74
2022/09/17 06:18:17;;;;;;;;;;;;;;;25.61;46.60;99509.23;1705110;82;21547;-74
2022/09/17 06:20:53;;;;;;;3.90;1.60;;;;;;;25.60;46.60;99509.01;1702929;82;20208;-74
2022/09/17 06:25:57;;;;;;;2.70;1.47;;;;;;;25.63;46.59;99508.23;1869817;76;22936;-74
2022/09/17 06:28:27;;;;;;;2.75;1.40;;;;;;;25.60;46.60;99513.77;1826164;78;21004;-74
2022/09/17 06:30:55;;;;;;;3.13;1.57;;;;;;;25.61;46.60;99520.95;1826753;78;20987;-74
2022/09/17 06:33:22;;;;;;;2.50;1.37;;;;;;;25.60;46.59;99513.19;1832857;78;20996;-74
2022/09/17 06:35:48;;;;;;;3.40;1.52;;;;;;;25.60;46.58;99506.81;1832944;78;20975;-74
2022/09/17 06:38:15;;;;;;;3.67;1.42;;;;;;;25.62;46.60;99511.42;1833072;77;20919;-74
2022/09/17 06:40:41;;;;;;;3.45;1.32;;;;;;;25.61;46.60;99513.41;1826275;78;20980;-75
2022/09/17 06:43:08;;;;;;;2.20;1.20;;;;;;;25.61;46.61;99500.87;1825859;77;21470;-74
2022/09/17 06:45:34;;;;;;;3.92;1.50;;;;;;;25.61;46.61;99500.06;1833028;78;20929;-74
2022/09/17 06:48:05;;;;;;;2.35;1.40;;;;;;;25.61;46.61;99502.85;1815206;78;20995;-75
2022/09/17 06:50:31;;;;;;;2.90;1.40;;;;;;;25.62;46.62;99492.73;1814294;77;21018;-74
2022/09/17 06:52:58;;;;;;;3.45;1.45;;;;;;;25.62;46.62;99475.22;1814404;78;21059;-73
2022/09/17 06:55:24;;;;;;;2.83;1.45;;;;;;;25.61;46.63;99475.80;1814324;77;21438;-74
2022/09/17 06:57:50;;;;;;;2.60;1.27;;;;;;;25.61;46.61;99483.36;1814093;77;21010;-74
2022/09/17 07:00:17;;;;;;;2.42;1.30;;;;;;;25.62;46.63;99487.75;1814529;77;21058;-74
2022/09/17 07:02:43;;;;;;;4.03;1.77;;;;;;;25.62;46.63;99485.77;1814474;77;21492;-74
2022/09/17 07:05:10;;;;;;;2.25;1.10;;;;;;;25.62;46.60;99480.78;1782549;79;21028;-74
2022/09/17 07:07:38;;;;;;;4.83;1.40;;;;;;;25.62;46.63;99482.17;1814420;77;21274;-74
2022/09/17 07:10:07;;;;;;;2.52;1.40;;;;;;;25.63;46.62;99485.17;1796809;78;21024;-74
2022/09/17 07:12:33;;;;;;;3.00;1.30;;;;;;;25.62;46.62;99478.80;1782150;80;21130;-74
2022/09/17 07:14:59;;;;;;;4.78;1.50;;;;;;;25.63;46.62;99470.63;1782347;79;21454;-74
2022/09/17 07:17:28;;;;;;;2.85;1.32;;;;;;;25.62;46.62;99464.88;1782417;79;21058;-74
2022/09/17 07:19:55;;;;;;;2.02;1.27;;;;;;;25.63;46.60;99458.72;1782059;79;21972;-74
2022/09/17 07:22:24;;;;;;;3.55;1.50;;;;;;;25.63;46.62;99460.11;1782209;79;21110;-74
2022/09/17 07:24:50;;;;;;;2.65;1.47;;;;;;;25.63;46.60;99472.64;1763864;80;21059;-74
2022/09/17 07:27:16;;;;;;;3.87;1.50;;;;;;;25.63;46.62;99474.04;1756469;80;21019;-76
2022/09/17 07:29:43;;;;;;;4.37;1.42;;;;;;;25.63;46.62;99476.83;1756587;80;21055;-75
2022/09/17 07:32:15;;;;;;;2.62;1.32;;;;;;;25.64;46.62;99475.02;1756349;80;21182;-74
2022/09/17 07:34:41;;;;;;;2.05;1.35;;;;;;;25.63;46.63;99474.04;1756396;80;21052;-74
2022/09/17 07:37:08;;;;;;;2.08;1.32;;;;;;;25.62;46.63;99470.45;1756148;80;21087;-74
2022/09/17 07:39:34;;;;;;;4.25;1.30;;;;;;;25.62;46.63;99471.84;1756277;80;21020;-74
2022/09/17 07:42:02;;;;;;;2.65;1.32;;;;;;;25.63;46.60;99460.88;1734891;81;21062;-74
2022/09/17 07:44:29;;;;;;;2.60;1.22;;;;;;;25.64;46.61;99456.12;1756040;80;21207;-74
2022/09/17 07:46:55;;;;;;;3.00;1.40;;;;;;;25.63;46.62;99451.75;1759468;79;20988;-74
2022/09/17 07:49:22;;;;;;;2.02;1.35;;;;;;;25.64;46.63;99456.12;1755620;80;21542;-74
2022/09/17 07:51:48;;;;;;;4.65;1.60;;;;;;;25.63;46.63;99457.33;1755771;80;21059;-74
2022/09/17 07:54:15;;;;;;;3.12;1.40;;;;;;;25.63;46.63;99462.89;1755630;80;21063;-74
2022/09/17 07:56:42;;;;;;;2.85;1.45;;;;;;;25.63;46.64;99468.47;1755834;80;21177;-75
2022/09/17 07:59:08;;;;;;;3.70;1.50;;;;;;;25.63;46.64;99465.68;1756366;80;21011;-74
2022/09/17 08:01:39;;;;;;;4.30;1.70;;;;;;;25.64;46.64;99465.87;1773113;80;21482;-74
2022/09/17 08:04:03;;;;;;;2.85;1.40;;;;;;;25.63;46.65;99463.67;1780716;79;21575;-74
2022/09/17 08:06:29;;;;;;;3.15;1.70;;;;;;;25.63;46.65;99456.70;1782466;80;21542;-74
2022/09/17 08:08:57;;;;;;;2.40;1.37;;;;;;;25.64;46.65;99457.51;1797940;79;21840;-75
2022/09/17 08:11:28;;;;;;;2.35;1.20;;;;;;;25.64;46.64;99447.17;1782078;79;21025;-74
2022/09/17 08:14:00;;;;;;;2.20;1.30;;;;;;;25.63;46.64;99450.36;1782276;80;21475;-74
2022/09/17 08:16:27;;;;;;;2.52;1.10;;;;;;;25.64;46.67;99457.51;1782179;79;21096;-75
2022/09/17 08:18:56;;;;;;;2.92;1.35;;;;;;;25.62;46.68;99453.73;1771222;80;21071;-74
2022/09/17 08:21:22;;;;;;;2.05;1.27;;;;;;;25.63;46.66;99448.97;1782255;80;21261;-75
2022/09/17 08:23:56;;;;;;;3.90;1.30;;;;;;;25.63;46.66;99441.39;1781801;79;20993;-74
2022/09/17 08:26:23;;;;;;;3.05;1.40;;;;;;;25.64;46.67;99447.77;1782008;78;21068;-75
2022/09/17 08:28:54;;;;;;;4.75;1.30;;;;;;;25.63;46.66;99448.34;1782148;79;21108;-74
2022/09/17 08:31:21;;;;;;;;;;;;;;;25.63;46.68;99439.22;1784568;79;21011;-74
2022/09/17 08:33:47;;;;;;;1.95;1.40;;;;;;;25.63;46.68;99439.22;1782468;79;20988;-74
2022/09/17 08:36:15;;;;;;;1.60;1.30;;;;;;;25.62;46.70;99440.40;1771342;80;21534;-76
2022/09/17 08:38:42;;;;;;;2.50;1.30;;;;;;;25.60;46.70;99433.80;1813952;79;20999;-74
2022/09/17 08:41:26;;;;;;;1.60;1.20;;;;;;;25.62;46.71;99432.84;1814118;78;21018;-74
2022/09/17 08:44:07;;;;;;;2.35;1.20;;;;;;;25.62;46.72;99443.19;1814085;79;20970;-75
2022/09/17 08:46:50;;;;;;;2.08;1.20;;;;;;;25.63;46.71;99449.74;1814516;78;21149;-74
2022/09/17 08:49:42;;;;;;;3.40;1.30;;;;;;;25.63;46.68;99437.83;1813987;79;20994;-74
2022/09/17 08:52:33;;;;;;;2.80;1.32;;;;;;;25.62;46.72;99438.41;1813722;78;21002;-74
2022/09/17 08:55:10;;;;;;;2.37;1.60;;;;;;;25.63;46.75;99448.34;1814290;78;21081;-74
2022/09/17 08:58:09;;;;;;;3.37;1.40;;;;;;;25.63;46.77;99450.36;1814286;78;21062;-75
2022/09/17 09:00:43;;;;;;;2.00;1.17;;;;;;;25.62;46.81;99443.98;1813899;79;21214;-75
2022/09/17 09:03:50;;;;;;;2.33;1.55;;;;;;;25.62;46.83;99441.79;1807580;78;21304;-74
2022/09/17 09:06:17;;;;;;;2.77;1.50;;;;;;;25.62;46.85;99435.63;1781129;78;21038;-74
2022/09/17 09:08:50;;;;;;;2.83;1.40;;;;;;;25.62;46.80;99433.44;1788144;78;21034;-74
2022/09/17 09:11:21;;;;;;;2.95;1.50;;;;;;;25.63;46.82;99440.00;1814127;79;21053;-74
2022/09/17 09:13:50;;;;;;;2.27;1.20;;;;;;;25.62;46.83;99447.36;1813824;78;21173;-74
2022/09/17 09:16:25;;;;;;;2.40;1.50;;;;;;;25.64;46.85;99449.16;1814078;79;21293;-74
2022/09/17 09:19:02;;;;;;;2.83;1.30;;;;;;;25.63;46.88;99455.31;1813839;78;21417;-74
2022/09/17 09:21:31;;;;;;;2.80;1.50;;;;;;;25.63;46.89;99446.95;1813874;78;21037;-73
2022/09/17 09:24:25;;;;;;;2.27;1.50;;;;;;;25.63;46.85;99453.14;1770939;80;21170;-74
2022/09/17 09:27:17;;;;;;;2.65;1.40;;;;;;;25.64;46.90;99456.12;1814096;79;21214;-74
2022/09/17 09:29:51;;;;;;;3.12;1.40;;;;;;;25.64;46.88;99457.51;1813756;79;21050;-74
2022/09/17 09:32:35;;;;;;;1.45;1.22;;;;;;;25.63;46.86;99465.06;1813995;79;21053;-74
2022/09/17 09:35:15;;;;;;;2.10;1.27;;;;;;;25.64;46.87;99486.17;1813971;79;21054;-74
2022/09/17 09:37:47;;;;;;;2.45;1.40;;;;;;;25.64;46.89;99490.94;1814082;79;21099;-74
2022/09/17 09:40:41;;;;;;;2.70;1.30;;;;;;;25.64;46.89;99496.50;1813586;79;21813;-74
2022/09/17 09:43:21;;;;;;;2.70;1.35;;;;;;;25.65;46.88;99485.58;1814021;79;21038;-74
2022/09/17 09:45:59;;;;;;;1.77;0.90;;;;;;;25.64;46.90;99493.72;1813947;78;21460;-74
2022/09/17 09:48:52;;;;;;;2.17;1.32;;;;;;;25.63;46.92;99504.06;1766001;80;21100;-74
2022/09/17 09:51:55;;;;;;;2.40;1.07;;;;;;;25.64;46.94;99489.55;1713084;82;21028;-76
2022/09/17 09:54:41;;;;;;;2.08;1.27;;;;;;;25.63;46.94;99474.81;1782078;80;21080;-74
2022/09/17 09:57:14;;;;;;;2.25;1.10;;;;;;;25.63;46.94;99474.04;1781612;79;21044;-75
2022/09/17 09:59:40;;;;;;;2.35;1.47;;;;;;;25.62;46.95;99474.63;1782301;79;21037;-74
2022/09/17 10:02:07;;;;;;;2.30;1.40;;;;;;;25.62;46.97;99462.68;1782266;79;21044;-74
2022/09/17 10:04:33;;;;;;;2.08;1.30;;;;;;;25.62;46.98;99467.66;1797070;79;20977;-74
2022/09/17 10:07:10;;;;;;;1.30;1.10;;;;;;;25.63;47.01;99479.61;1781809;79;21671;-74
2022/09/17 10:09:38;;;;;;;2.17;1.20;;;;;;;25.64;47.02;99471.44;1781554;79;21031;-75
2022/09/17 10:12:13;;;;;;;3.27;1.40;;;;;;;25.63;47.01;99473.42;1782308;79;21435;-74
2022/09/17 10:14:41;;;;;;;3.35;1.55;;;;;;;25.64;47.03;99472.83;1782081;79;21001;-74
2022/09/17 10:17:21;;;;;;;1.50;1.10;;;;;;;25.64;47.01;99469.45;1782207;79;21028;-75
2022/09/17 10:20:10;;;;;;;2.58;1.07;;;;;;;25.65;47.02;99471.66;1781831;79;22011;-74
2022/09/17 10:22:45;;;;;;;2.98;1.30;;;;;;;25.64;47.02;99475.02;1782005;79;21503;-74
2022/09/17 10:25:31;;;;;;;3.27;1.27;;;;;;;25.64;47.01;99467.26;1781874;78;21538;-74
2022/09/17 10:28:03;;;;;;;2.60;1.50;;;;;;;25.65;47.00;99467.47;1777257;79;21049;-74
2022/09/17 10:30:30;;;;;;;1.62;1.10;;;;;;;25.65;47.00;99459.12;1776708;79;21432;-71
2022/09/17 10:33:23;;;;;;;2.00;1.25;;;;;;;25.65;47.00;99447.98;1777044;79;21068;-74
2022/09/17 10:36:11;;;;;;;2.33;1.10;;;;;;;25.64;47.00;99447.17;1776314;79;20984;-75
2022/09/17 10:38:44;;;;;;;3.00;1.60;;;;;;;25.64;47.00;99452.74;1775663;80;21032;-75
2022/09/17 10:41:24;;;;;;;1.85;1.10;;;;;;;25.64;47.02;99453.33;1766456;80;21115;-73
2022/09/17 10:43:48;;;;;;;4.85;1.40;;;;;;;25.64;47.02;99457.51;1775567;79;21064;-73
2022/09/17 10:46:19;;;;;;;3.05;1.40;;;;;;;25.64;47.02;99465.28;1776484;79;21080;-74
2022/09/17 10:49:00;;;;;;;1.87;1.35;;;;;;;25.64;47.03;99465.87;1776600;79;21080;-74
2022/09/17 10:51:26;;;;;;;2.27;1.40;;;;;;;25.64;47.02;99455.53;1776578;80;21104;-73
2022/09/17 10:54:16;;;;;;;1.90;1.20;;;;;;;25.65;47.02;99456.33;1777070;79;21583;-74
2022/09/17 10:56:48;;;;;;;2.20;1.30;;;;;;;25.65;47.02;99466.89;1748183;79;21518;-73
2022/09/17 10:59:28;;;;;;;2.08;1.10;;;;;;;25.63;47.01;99465.06;1776794;79;21207;-74
2022/09/17 11:02:09;;;;;;;2.67;1.32;;;;;;;25.64;47.01;99468.66;1776440;79;21562;-73
2022/09/17 11:05:14;;;;;;;1.70;1.30;;;;;;;25.64;47.02;99465.28;1776309;79;21551;-73
2022/09/17 11:08:01;;;;;;;3.75;1.67;;;;;;;25.64;47.00;99470.84;1776639;79;20990;-74
2022/09/17 11:11:01;;;;;;;2.08;1.47;;;;;;;25.64;47.00;99461.10;1692269;83;21079;-74
2022/09/17 11:13:39;;;;;;;2.47;1.35;;;;;;;25.64;46.98;99465.87;1776943;80;21113;-74
2022/09/17 11:16:40;;;;;;;4.78;1.37;;;;;;;25.63;46.97;99469.23;1776724;80;21626;-75
2022/09/17 11:19:35;;;;;;;2.05;1.30;;;;;;;25.63;46.99;99460.88;1776188;79;21045;-74
2022/09/17 11:22:12;;;;;;;1.35;1.02;;;;;;;25.63;46.98;99457.33;1776798;79;21373;-74
2022/09/17 11:25:26;;;;;;;2.15;1.40;;;;;;;25.61;47.00;99459.09;1775835;79;21068;-74
2022/09/17 11:28:15;;;;;;;1.90;1.20;;;;;;;25.63;47.01;99468.47;1776719;79;21013;-74
2022/09/17 11:31:04;;;;;;;1.98;1.30;;;;;;;25.61;46.98;99463.86;1776130;79;21021;-74
2022/09/17 11:34:18;;;;;;;1.98;1.52;;;;;;;25.61;47.00;99462.47;1776265;80;21117;-74
2022/09/17 11:37:10;;;;;;;3.90;1.50;;;;;;;25.61;46.99;99468.03;1776338;79;21064;-73
2022/09/17 11:39:59;;;;;;;2.62;1.25;;;;;;;25.61;46.98;99470.82;1768283;79;21094;-73
2022/09/17 11:42:32;;;;;;;2.70;1.40;;;;;;;25.60;47.01;99461.66;1766023;80;22164;-73
2022/09/17 11:45:04;;;;;;;1.98;1.25;;;;;;;25.60;47.04;99473.39;1766117;80;21080;-74
2022/09/17 11:47:35;;;;;;;1.65;1.22;;;;;;;25.60;47.06;99474.78;1765335;80;20977;-73
2022/09/17 11:50:25;;;;;;;2.40;1.50;;;;;;;25.60;47.06;99476.17;1766096;79;21446;-74
2022/09/17 11:53:16;;;;;;;1.80;1.10;;;;;;;25.61;47.09;99475.00;1765850;80;20984;-73
2022/09/17 11:55:53;;;;;;;1.70;1.10;;;;;;;25.61;47.07;99479.17;1765823;80;21145;-74
2022/09/17 11:58:48;;;;;;;1.92;1.22;;;;;;;25.61;47.07;99468.03;1765779;80;20968;-73
2022/09/17 12:01:36;;;;;;;1.75;1.10;;;;;;;25.62;47.10;99475.22;1742623;81;21463;-73
2022/09/17 12:04:26;;;;;;;1.92;1.12;;;;;;;25.60;47.09;99478.96;1749095;81;21000;-75
2022/09/17 12:06:56;;;;;;;2.40;1.27;;;;;;;25.60;47.09;99470.02;1766329;79;21049;-74